FAOR

Olifants River Bridge Landing Strip Airport

Olifants River Bridge, South Africa
TAF FAOR 251600Z 2518/2624 32013KT CAVOK BECMG 2519/2521 03008KT BECMG 2603/2605 33007KT TX28/2613Z TN13/2604Z
Issued Valid From Valid To
Sep-25 @ 16:00 UTC
(3 hours ago)
Sep-25 @ 18:00 UTC
(an hour ago)
Sep-27 @ 00:00 UTC
(-1 days ago)
Expired Click to View Sep-25 @ 18:00 to Sep-25 @ 19:00
TAF FAOR 251600Z 2518/2624 32013KT CAVOK
Wind Visibility Clouds Conditions
320° at 13 knots 10,000+ meters
  • No significant clouds
Becoming Sep-25 @ 19:00 to Sep-26 @ 03:00
BECMG 2519/2521 03008KT
Wind Visibility Clouds Conditions
30° at 8 knots 10,000+ meters
  • No significant clouds
Becoming Sep-26 @ 03:00 to Sep-27 @ 00:00
BECMG 2603/2605 33007KT TX28/2613Z TN13/2604Z
Wind Visibility Clouds Conditions
330° at 7 knots 10,000+ meters
  • No significant clouds
TAF FAOR 251600Z 2518/2624 32013KT CAVOK BECMG 2519/2521 03008KT BECMG 2603/2605 33007KT TX28/2613Z TN13/2604Z
Issued Sep-25 @ 16:00 UTC
(3 hours ago)
Valid From Sep-25 @ 18:00 UTC
(an hour ago)
Valid To Sep-27 @ 00:00 UTC
(-1 days ago)
Sep-25 @ 18:00 - Sep-25 @ 19:00
Wind Visibility
320° at 13 knots 10,000+ meters
Clouds
  • No significant clouds
Conditions
Becoming Sep-25 @ 19:00 - Sep-26 @ 03:00
Wind Visibility
30° at 8 knots 10,000+ meters
Clouds
  • No significant clouds
Conditions
Becoming Sep-26 @ 03:00 - Sep-27 @ 00:00
Wind Visibility
330° at 7 knots 10,000+ meters
Clouds
  • No significant clouds
Conditions